Stanley, North Carolina
Current Conditions -  °F | °C
As of 12:55 AM on Tuesday 27 Jan 2015 (Local Time) from KIPJ Reporting Station
Clear Clear  
Wind Chill: 30°   Ceiling: Unl
Heat Index: 34°   Visibility: 10mi
Dew Point: 22°   Wind: 5mph
Humidity: 61%   Direction: 290°WNW
Pressure: 29.76"   Gusts: NA
Location:  35.36°N, 81.1°W
Report Text: KIPJ 270555Z AUTO 29004KT 10SM CLR 01/M06 A2976 RMK AO2 T00111057 10060 20011 401160011
Loading
Personal Weather Stations






























Interactive Weather Map New forecast layout! Learn more

10-Day Weather Forecast

Advertisements
Track Severe Weather on mobile